<?xml version="1.0" encoding="UTF-8" standalone="no" ?>
<gpx xmlns="http://www.topografix.com/GPX/1/1" xmlns:xsi="http://www.w3.org/2001/XMLSchema-instance" xsi:schemaLocation="http://www.topografix.com/GPX/1/1 http://www.topografix.com/GPX/1/1/gpx.xsd" version="1.1" creator="VisuGPX - https://www.visugpx.com">
  <metadata>
    <name>11901899-Reco St Laurent 20/09</name>
  </metadata>
  <trk>
    <name><![CDATA[11901899-Reco St Laurent 20/09]]></name>
    <trkseg>
      <trkpt lat="45.6469" lon="4.67304">
        <ele>486</ele>
        <time>2020-08-20T11:04:41Z</time>
      </trkpt>
      <trkpt lat="45.64657" lon="4.67285">
        <ele>488</ele>
        <time>2020-08-20T11:05:28Z</time>
      </trkpt>
      <trkpt lat="45.64654" lon="4.67199">
        <ele>491</ele>
        <time>2020-08-20T11:06:49Z</time>
      </trkpt>
      <trkpt lat="45.64662" lon="4.67171">
        <ele>492</ele>
        <time>2020-08-20T11:07:17Z</time>
      </trkpt>
      <trkpt lat="45.64675" lon="4.67147">
        <ele>491</ele>
        <time>2020-08-20T11:07:45Z</time>
      </trkpt>
      <trkpt lat="45.64683" lon="4.67123">
        <ele>490</ele>
        <time>2020-08-20T11:08:10Z</time>
      </trkpt>
      <trkpt lat="45.64708" lon="4.67037">
        <ele>490</ele>
        <time>2020-08-20T11:09:37Z</time>
      </trkpt>
      <trkpt lat="45.64726" lon="4.67071">
        <ele>490</ele>
        <time>2020-08-20T11:10:17Z</time>
      </trkpt>
      <trkpt lat="45.64769" lon="4.67116">
        <ele>487</ele>
        <time>2020-08-20T11:11:28Z</time>
      </trkpt>
      <trkpt lat="45.64779" lon="4.67134">
        <ele>486</ele>
        <time>2020-08-20T11:11:49Z</time>
      </trkpt>
      <trkpt lat="45.64792" lon="4.67169">
        <ele>483</ele>
        <time>2020-08-20T11:12:26Z</time>
      </trkpt>
      <trkpt lat="45.64802" lon="4.67207">
        <ele>481</ele>
        <time>2020-08-20T11:13:04Z</time>
      </trkpt>
      <trkpt lat="45.64817" lon="4.67288">
        <ele>476</ele>
        <time>2020-08-20T11:14:22Z</time>
      </trkpt>
      <trkpt lat="45.64852" lon="4.67423">
        <ele>469</ele>
        <time>2020-08-20T11:16:37Z</time>
      </trkpt>
      <trkpt lat="45.64917" lon="4.67439">
        <ele>465</ele>
        <time>2020-08-20T11:18:05Z</time>
      </trkpt>
      <trkpt lat="45.64953" lon="4.67468">
        <ele>464</ele>
        <time>2020-08-20T11:19:00Z</time>
      </trkpt>
      <trkpt lat="45.64966" lon="4.67481">
        <ele>463</ele>
        <time>2020-08-20T11:19:21Z</time>
      </trkpt>
      <trkpt lat="45.65045" lon="4.67581">
        <ele>452</ele>
        <time>2020-08-20T11:21:42Z</time>
      </trkpt>
      <trkpt lat="45.65063" lon="4.67597">
        <ele>449</ele>
        <time>2020-08-20T11:22:10Z</time>
      </trkpt>
      <trkpt lat="45.65188" lon="4.67681">
        <ele>433</ele>
        <time>2020-08-20T11:25:14Z</time>
      </trkpt>
      <trkpt lat="45.65212" lon="4.67694">
        <ele>431</ele>
        <time>2020-08-20T11:25:49Z</time>
      </trkpt>
      <trkpt lat="45.65263" lon="4.67714">
        <ele>428</ele>
        <time>2020-08-20T11:26:59Z</time>
      </trkpt>
      <trkpt lat="45.65311" lon="4.67765">
        <ele>425</ele>
        <time>2020-08-20T11:28:19Z</time>
      </trkpt>
      <trkpt lat="45.65327" lon="4.67787">
        <ele>423</ele>
        <time>2020-08-20T11:28:49Z</time>
      </trkpt>
      <trkpt lat="45.65332" lon="4.67798">
        <ele>423</ele>
        <time>2020-08-20T11:29:01Z</time>
      </trkpt>
      <trkpt lat="45.6534" lon="4.67791">
        <ele>423</ele>
        <time>2020-08-20T11:29:13Z</time>
      </trkpt>
      <trkpt lat="45.65385" lon="4.67736">
        <ele>423</ele>
        <time>2020-08-20T11:30:32Z</time>
      </trkpt>
      <trkpt lat="45.65402" lon="4.67724">
        <ele>422</ele>
        <time>2020-08-20T11:30:58Z</time>
      </trkpt>
      <trkpt lat="45.65452" lon="4.67701">
        <ele>417</ele>
        <time>2020-08-20T11:32:08Z</time>
      </trkpt>
      <trkpt lat="45.65473" lon="4.67687">
        <ele>415</ele>
        <time>2020-08-20T11:32:39Z</time>
      </trkpt>
      <trkpt lat="45.6552" lon="4.6767">
        <ele>412</ele>
        <time>2020-08-20T11:33:43Z</time>
      </trkpt>
      <trkpt lat="45.65574" lon="4.67658">
        <ele>413</ele>
        <time>2020-08-20T11:34:56Z</time>
      </trkpt>
      <trkpt lat="45.65628" lon="4.67642">
        <ele>410</ele>
        <time>2020-08-20T11:36:10Z</time>
      </trkpt>
      <trkpt lat="45.65668" lon="4.67625">
        <ele>406</ele>
        <time>2020-08-20T11:37:06Z</time>
      </trkpt>
      <trkpt lat="45.65691" lon="4.67623">
        <ele>405</ele>
        <time>2020-08-20T11:37:36Z</time>
      </trkpt>
      <trkpt lat="45.65707" lon="4.67625">
        <ele>404</ele>
        <time>2020-08-20T11:37:58Z</time>
      </trkpt>
      <trkpt lat="45.65719" lon="4.67624">
        <ele>403</ele>
        <time>2020-08-20T11:38:14Z</time>
      </trkpt>
      <trkpt lat="45.65726" lon="4.67617">
        <ele>403</ele>
        <time>2020-08-20T11:38:25Z</time>
      </trkpt>
      <trkpt lat="45.65732" lon="4.67616">
        <ele>402</ele>
        <time>2020-08-20T11:38:33Z</time>
      </trkpt>
      <trkpt lat="45.65751" lon="4.67611">
        <ele>401</ele>
        <time>2020-08-20T11:38:59Z</time>
      </trkpt>
      <trkpt lat="45.65753" lon="4.67608">
        <ele>402</ele>
        <time>2020-08-20T11:39:03Z</time>
      </trkpt>
      <trkpt lat="45.65754" lon="4.67607">
        <ele>402</ele>
        <time>2020-08-20T11:39:04Z</time>
      </trkpt>
      <trkpt lat="45.65767" lon="4.67636">
        <ele>402</ele>
        <time>2020-08-20T11:39:37Z</time>
      </trkpt>
      <trkpt lat="45.65775" lon="4.67661">
        <ele>402</ele>
        <time>2020-08-20T11:40:02Z</time>
      </trkpt>
      <trkpt lat="45.65783" lon="4.67678">
        <ele>402</ele>
        <time>2020-08-20T11:40:21Z</time>
      </trkpt>
      <trkpt lat="45.65793" lon="4.67697">
        <ele>403</ele>
        <time>2020-08-20T11:40:44Z</time>
      </trkpt>
      <trkpt lat="45.65802" lon="4.67724">
        <ele>403</ele>
        <time>2020-08-20T11:41:11Z</time>
      </trkpt>
      <trkpt lat="45.65809" lon="4.67757">
        <ele>402</ele>
        <time>2020-08-20T11:41:44Z</time>
      </trkpt>
      <trkpt lat="45.65816" lon="4.67785">
        <ele>400</ele>
        <time>2020-08-20T11:42:11Z</time>
      </trkpt>
      <trkpt lat="45.65874" lon="4.6789">
        <ele>402</ele>
        <time>2020-08-20T11:44:16Z</time>
      </trkpt>
      <trkpt lat="45.65946" lon="4.67967">
        <ele>404</ele>
        <time>2020-08-20T11:46:16Z</time>
      </trkpt>
      <trkpt lat="45.66051" lon="4.6805">
        <ele>407</ele>
        <time>2020-08-20T11:48:56Z</time>
      </trkpt>
      <trkpt lat="45.66142" lon="4.68126">
        <ele>409</ele>
        <time>2020-08-20T11:51:17Z</time>
      </trkpt>
      <trkpt lat="45.66157" lon="4.68131">
        <ele>409</ele>
        <time>2020-08-20T11:51:37Z</time>
      </trkpt>
      <trkpt lat="45.66193" lon="4.68127">
        <ele>411</ele>
        <time>2020-08-20T11:52:26Z</time>
      </trkpt>
      <trkpt lat="45.66255" lon="4.68095">
        <ele>414</ele>
        <time>2020-08-20T11:53:54Z</time>
      </trkpt>
      <trkpt lat="45.66274" lon="4.68078">
        <ele>414</ele>
        <time>2020-08-20T11:54:23Z</time>
      </trkpt>
      <trkpt lat="45.66299" lon="4.68043">
        <ele>415</ele>
        <time>2020-08-20T11:55:10Z</time>
      </trkpt>
      <trkpt lat="45.66306" lon="4.68037">
        <ele>415</ele>
        <time>2020-08-20T11:55:21Z</time>
      </trkpt>
      <trkpt lat="45.66332" lon="4.6803">
        <ele>415</ele>
        <time>2020-08-20T11:55:56Z</time>
      </trkpt>
      <trkpt lat="45.66349" lon="4.68028">
        <ele>414</ele>
        <time>2020-08-20T11:56:19Z</time>
      </trkpt>
      <trkpt lat="45.66349" lon="4.68032">
        <ele>414</ele>
        <time>2020-08-20T11:56:23Z</time>
      </trkpt>
      <trkpt lat="45.66349" lon="4.68028">
        <ele>414</ele>
        <time>2020-08-20T11:56:27Z</time>
      </trkpt>
      <trkpt lat="45.66354" lon="4.68019">
        <ele>415</ele>
        <time>2020-08-20T11:56:37Z</time>
      </trkpt>
      <trkpt lat="45.66395" lon="4.67982">
        <ele>416</ele>
        <time>2020-08-20T11:57:42Z</time>
      </trkpt>
      <trkpt lat="45.66401" lon="4.67976">
        <ele>416</ele>
        <time>2020-08-20T11:57:52Z</time>
      </trkpt>
      <trkpt lat="45.66405" lon="4.67967">
        <ele>416</ele>
        <time>2020-08-20T11:58:02Z</time>
      </trkpt>
      <trkpt lat="45.66409" lon="4.67954">
        <ele>417</ele>
        <time>2020-08-20T11:58:15Z</time>
      </trkpt>
      <trkpt lat="45.66415" lon="4.67921">
        <ele>418</ele>
        <time>2020-08-20T11:58:47Z</time>
      </trkpt>
      <trkpt lat="45.66417" lon="4.67855">
        <ele>420</ele>
        <time>2020-08-20T11:59:48Z</time>
      </trkpt>
      <trkpt lat="45.66408" lon="4.67744">
        <ele>422</ele>
        <time>2020-08-20T12:01:33Z</time>
      </trkpt>
      <trkpt lat="45.66408" lon="4.67703">
        <ele>422</ele>
        <time>2020-08-20T12:02:11Z</time>
      </trkpt>
      <trkpt lat="45.66411" lon="4.67678">
        <ele>421</ele>
        <time>2020-08-20T12:02:34Z</time>
      </trkpt>
      <trkpt lat="45.66418" lon="4.67635">
        <ele>421</ele>
        <time>2020-08-20T12:03:16Z</time>
      </trkpt>
      <trkpt lat="45.66424" lon="4.67613">
        <ele>421</ele>
        <time>2020-08-20T12:03:38Z</time>
      </trkpt>
      <trkpt lat="45.66477" lon="4.67481">
        <ele>419</ele>
        <time>2020-08-20T12:06:00Z</time>
      </trkpt>
      <trkpt lat="45.66482" lon="4.67474">
        <ele>418</ele>
        <time>2020-08-20T12:06:09Z</time>
      </trkpt>
      <trkpt lat="45.66487" lon="4.67469">
        <ele>418</ele>
        <time>2020-08-20T12:06:17Z</time>
      </trkpt>
      <trkpt lat="45.66508" lon="4.67462">
        <ele>417</ele>
        <time>2020-08-20T12:06:46Z</time>
      </trkpt>
      <trkpt lat="45.66537" lon="4.67458">
        <ele>416</ele>
        <time>2020-08-20T12:07:25Z</time>
      </trkpt>
      <trkpt lat="45.66545" lon="4.67455">
        <ele>416</ele>
        <time>2020-08-20T12:07:36Z</time>
      </trkpt>
      <trkpt lat="45.66549" lon="4.67452">
        <ele>416</ele>
        <time>2020-08-20T12:07:42Z</time>
      </trkpt>
      <trkpt lat="45.66552" lon="4.67445">
        <ele>416</ele>
        <time>2020-08-20T12:07:49Z</time>
      </trkpt>
      <trkpt lat="45.66555" lon="4.67427">
        <ele>416</ele>
        <time>2020-08-20T12:08:07Z</time>
      </trkpt>
      <trkpt lat="45.66556" lon="4.67396">
        <ele>417</ele>
        <time>2020-08-20T12:08:36Z</time>
      </trkpt>
      <trkpt lat="45.66552" lon="4.67355">
        <ele>418</ele>
        <time>2020-08-20T12:09:14Z</time>
      </trkpt>
      <trkpt lat="45.66552" lon="4.67345">
        <ele>418</ele>
        <time>2020-08-20T12:09:24Z</time>
      </trkpt>
      <trkpt lat="45.66553" lon="4.67339">
        <ele>418</ele>
        <time>2020-08-20T12:09:29Z</time>
      </trkpt>
      <trkpt lat="45.6656" lon="4.67321">
        <ele>419</ele>
        <time>2020-08-20T12:09:49Z</time>
      </trkpt>
      <trkpt lat="45.66577" lon="4.67301">
        <ele>419</ele>
        <time>2020-08-20T12:10:18Z</time>
      </trkpt>
      <trkpt lat="45.6659" lon="4.67292">
        <ele>419</ele>
        <time>2020-08-20T12:10:37Z</time>
      </trkpt>
      <trkpt lat="45.66604" lon="4.67287">
        <ele>419</ele>
        <time>2020-08-20T12:10:56Z</time>
      </trkpt>
      <trkpt lat="45.66653" lon="4.67284">
        <ele>420</ele>
        <time>2020-08-20T12:12:02Z</time>
      </trkpt>
      <trkpt lat="45.66664" lon="4.6728">
        <ele>420</ele>
        <time>2020-08-20T12:12:17Z</time>
      </trkpt>
      <trkpt lat="45.66673" lon="4.67272">
        <ele>420</ele>
        <time>2020-08-20T12:12:31Z</time>
      </trkpt>
      <trkpt lat="45.66692" lon="4.67251">
        <ele>421</ele>
        <time>2020-08-20T12:13:03Z</time>
      </trkpt>
      <trkpt lat="45.66685" lon="4.67225">
        <ele>422</ele>
        <time>2020-08-20T12:13:29Z</time>
      </trkpt>
      <trkpt lat="45.66684" lon="4.67189">
        <ele>423</ele>
        <time>2020-08-20T12:14:03Z</time>
      </trkpt>
      <trkpt lat="45.66702" lon="4.67024">
        <ele>427</ele>
        <time>2020-08-20T12:16:39Z</time>
      </trkpt>
      <trkpt lat="45.66685" lon="4.66983">
        <ele>429</ele>
        <time>2020-08-20T12:17:23Z</time>
      </trkpt>
      <trkpt lat="45.6666" lon="4.66942">
        <ele>431</ele>
        <time>2020-08-20T12:18:14Z</time>
      </trkpt>
      <trkpt lat="45.66638" lon="4.6691">
        <ele>432</ele>
        <time>2020-08-20T12:18:56Z</time>
      </trkpt>
      <trkpt lat="45.66659" lon="4.66909">
        <ele>432</ele>
        <time>2020-08-20T12:19:24Z</time>
      </trkpt>
      <trkpt lat="45.66678" lon="4.66862">
        <ele>434</ele>
        <time>2020-08-20T12:20:14Z</time>
      </trkpt>
      <trkpt lat="45.66652" lon="4.66824">
        <ele>436</ele>
        <time>2020-08-20T12:21:04Z</time>
      </trkpt>
      <trkpt lat="45.66647" lon="4.66809">
        <ele>436</ele>
        <time>2020-08-20T12:21:19Z</time>
      </trkpt>
      <trkpt lat="45.66642" lon="4.66776">
        <ele>438</ele>
        <time>2020-08-20T12:21:51Z</time>
      </trkpt>
      <trkpt lat="45.66632" lon="4.66737">
        <ele>439</ele>
        <time>2020-08-20T12:22:30Z</time>
      </trkpt>
      <trkpt lat="45.66612" lon="4.66684">
        <ele>442</ele>
        <time>2020-08-20T12:23:26Z</time>
      </trkpt>
      <trkpt lat="45.66579" lon="4.66649">
        <ele>445</ele>
        <time>2020-08-20T12:24:21Z</time>
      </trkpt>
      <trkpt lat="45.6653" lon="4.66618">
        <ele>446</ele>
        <time>2020-08-20T12:25:32Z</time>
      </trkpt>
      <trkpt lat="45.66556" lon="4.66537">
        <ele>455</ele>
        <time>2020-08-20T12:26:55Z</time>
      </trkpt>
      <trkpt lat="45.66572" lon="4.66535">
        <ele>456</ele>
        <time>2020-08-20T12:27:17Z</time>
      </trkpt>
      <trkpt lat="45.66588" lon="4.66525">
        <ele>457</ele>
        <time>2020-08-20T12:27:40Z</time>
      </trkpt>
      <trkpt lat="45.66596" lon="4.66522">
        <ele>456</ele>
        <time>2020-08-20T12:27:51Z</time>
      </trkpt>
      <trkpt lat="45.66627" lon="4.66522">
        <ele>454</ele>
        <time>2020-08-20T12:28:32Z</time>
      </trkpt>
      <trkpt lat="45.66629" lon="4.66519">
        <ele>454</ele>
        <time>2020-08-20T12:28:36Z</time>
      </trkpt>
      <trkpt lat="45.6663" lon="4.66513">
        <ele>454</ele>
        <time>2020-08-20T12:28:42Z</time>
      </trkpt>
      <trkpt lat="45.66625" lon="4.66469">
        <ele>458</ele>
        <time>2020-08-20T12:29:24Z</time>
      </trkpt>
      <trkpt lat="45.66628" lon="4.66451">
        <ele>459</ele>
        <time>2020-08-20T12:29:41Z</time>
      </trkpt>
      <trkpt lat="45.66629" lon="4.66429">
        <ele>461</ele>
        <time>2020-08-20T12:30:01Z</time>
      </trkpt>
      <trkpt lat="45.66619" lon="4.6639">
        <ele>464</ele>
        <time>2020-08-20T12:30:40Z</time>
      </trkpt>
      <trkpt lat="45.66618" lon="4.6638">
        <ele>465</ele>
        <time>2020-08-20T12:30:49Z</time>
      </trkpt>
      <trkpt lat="45.66608" lon="4.66381">
        <ele>466</ele>
        <time>2020-08-20T12:31:03Z</time>
      </trkpt>
      <trkpt lat="45.66595" lon="4.66378">
        <ele>468</ele>
        <time>2020-08-20T12:31:20Z</time>
      </trkpt>
      <trkpt lat="45.66584" lon="4.66371">
        <ele>470</ele>
        <time>2020-08-20T12:31:36Z</time>
      </trkpt>
      <trkpt lat="45.66555" lon="4.66337">
        <ele>474</ele>
        <time>2020-08-20T12:32:27Z</time>
      </trkpt>
      <trkpt lat="45.66545" lon="4.66318">
        <ele>476</ele>
        <time>2020-08-20T12:32:49Z</time>
      </trkpt>
      <trkpt lat="45.6653" lon="4.66306">
        <ele>478</ele>
        <time>2020-08-20T12:33:12Z</time>
      </trkpt>
      <trkpt lat="45.66515" lon="4.66301">
        <ele>480</ele>
        <time>2020-08-20T12:33:32Z</time>
      </trkpt>
      <trkpt lat="45.66501" lon="4.66291">
        <ele>482</ele>
        <time>2020-08-20T12:33:53Z</time>
      </trkpt>
      <trkpt lat="45.66496" lon="4.66278">
        <ele>483</ele>
        <time>2020-08-20T12:34:07Z</time>
      </trkpt>
      <trkpt lat="45.66493" lon="4.66258">
        <ele>485</ele>
        <time>2020-08-20T12:34:26Z</time>
      </trkpt>
      <trkpt lat="45.66484" lon="4.66241">
        <ele>486</ele>
        <time>2020-08-20T12:34:46Z</time>
      </trkpt>
      <trkpt lat="45.66492" lon="4.66212">
        <ele>488</ele>
        <time>2020-08-20T12:35:15Z</time>
      </trkpt>
      <trkpt lat="45.66494" lon="4.66187">
        <ele>489</ele>
        <time>2020-08-20T12:35:38Z</time>
      </trkpt>
      <trkpt lat="45.66491" lon="4.66165">
        <ele>491</ele>
        <time>2020-08-20T12:35:59Z</time>
      </trkpt>
      <trkpt lat="45.6649" lon="4.6615">
        <ele>491</ele>
        <time>2020-08-20T12:36:13Z</time>
      </trkpt>
      <trkpt lat="45.6647" lon="4.66142">
        <ele>493</ele>
        <time>2020-08-20T12:36:41Z</time>
      </trkpt>
      <trkpt lat="45.66435" lon="4.66122">
        <ele>496</ele>
        <time>2020-08-20T12:37:31Z</time>
      </trkpt>
      <trkpt lat="45.66431" lon="4.66121">
        <ele>496</ele>
        <time>2020-08-20T12:37:37Z</time>
      </trkpt>
      <trkpt lat="45.66428" lon="4.66125">
        <ele>497</ele>
        <time>2020-08-20T12:37:42Z</time>
      </trkpt>
      <trkpt lat="45.66414" lon="4.66121">
        <ele>498</ele>
        <time>2020-08-20T12:38:01Z</time>
      </trkpt>
      <trkpt lat="45.66403" lon="4.66135">
        <ele>497</ele>
        <time>2020-08-20T12:38:21Z</time>
      </trkpt>
      <trkpt lat="45.66386" lon="4.66131">
        <ele>498</ele>
        <time>2020-08-20T12:38:44Z</time>
      </trkpt>
      <trkpt lat="45.66378" lon="4.66126">
        <ele>498</ele>
        <time>2020-08-20T12:38:56Z</time>
      </trkpt>
      <trkpt lat="45.6634" lon="4.66126">
        <ele>498</ele>
        <time>2020-08-20T12:39:46Z</time>
      </trkpt>
      <trkpt lat="45.6633" lon="4.66132">
        <ele>498</ele>
        <time>2020-08-20T12:40:01Z</time>
      </trkpt>
      <trkpt lat="45.66325" lon="4.66147">
        <ele>497</ele>
        <time>2020-08-20T12:40:16Z</time>
      </trkpt>
      <trkpt lat="45.66319" lon="4.66149">
        <ele>497</ele>
        <time>2020-08-20T12:40:25Z</time>
      </trkpt>
      <trkpt lat="45.66279" lon="4.66148">
        <ele>496</ele>
        <time>2020-08-20T12:41:18Z</time>
      </trkpt>
      <trkpt lat="45.66282" lon="4.66135">
        <ele>497</ele>
        <time>2020-08-20T12:41:31Z</time>
      </trkpt>
      <trkpt lat="45.66285" lon="4.66112">
        <ele>498</ele>
        <time>2020-08-20T12:41:52Z</time>
      </trkpt>
      <trkpt lat="45.66301" lon="4.66057">
        <ele>499</ele>
        <time>2020-08-20T12:42:48Z</time>
      </trkpt>
      <trkpt lat="45.66253" lon="4.66042">
        <ele>498</ele>
        <time>2020-08-20T12:43:54Z</time>
      </trkpt>
      <trkpt lat="45.66242" lon="4.66036">
        <ele>499</ele>
        <time>2020-08-20T12:44:09Z</time>
      </trkpt>
      <trkpt lat="45.66237" lon="4.66031">
        <ele>499</ele>
        <time>2020-08-20T12:44:17Z</time>
      </trkpt>
      <trkpt lat="45.66231" lon="4.66011">
        <ele>500</ele>
        <time>2020-08-20T12:44:38Z</time>
      </trkpt>
      <trkpt lat="45.66206" lon="4.65963">
        <ele>502</ele>
        <time>2020-08-20T12:45:34Z</time>
      </trkpt>
      <trkpt lat="45.66196" lon="4.6595">
        <ele>503</ele>
        <time>2020-08-20T12:45:52Z</time>
      </trkpt>
      <trkpt lat="45.66126" lon="4.65926">
        <ele>508</ele>
        <time>2020-08-20T12:47:28Z</time>
      </trkpt>
      <trkpt lat="45.66112" lon="4.65916">
        <ele>508</ele>
        <time>2020-08-20T12:47:49Z</time>
      </trkpt>
      <trkpt lat="45.66092" lon="4.65912">
        <ele>509</ele>
        <time>2020-08-20T12:48:16Z</time>
      </trkpt>
      <trkpt lat="45.66074" lon="4.6589">
        <ele>509</ele>
        <time>2020-08-20T12:48:47Z</time>
      </trkpt>
      <trkpt lat="45.66068" lon="4.65888">
        <ele>509</ele>
        <time>2020-08-20T12:48:55Z</time>
      </trkpt>
      <trkpt lat="45.66061" lon="4.65872">
        <ele>509</ele>
        <time>2020-08-20T12:49:13Z</time>
      </trkpt>
      <trkpt lat="45.66043" lon="4.65824">
        <ele>509</ele>
        <time>2020-08-20T12:50:04Z</time>
      </trkpt>
      <trkpt lat="45.66032" lon="4.658">
        <ele>508</ele>
        <time>2020-08-20T12:50:31Z</time>
      </trkpt>
      <trkpt lat="45.65997" lon="4.65749">
        <ele>506</ele>
        <time>2020-08-20T12:51:37Z</time>
      </trkpt>
      <trkpt lat="45.65961" lon="4.65722">
        <ele>507</ele>
        <time>2020-08-20T12:52:31Z</time>
      </trkpt>
      <trkpt lat="45.65929" lon="4.65685">
        <ele>509</ele>
        <time>2020-08-20T12:53:26Z</time>
      </trkpt>
      <trkpt lat="45.65873" lon="4.65628">
        <ele>515</ele>
        <time>2020-08-20T12:54:58Z</time>
      </trkpt>
      <trkpt lat="45.65861" lon="4.65603">
        <ele>518</ele>
        <time>2020-08-20T12:55:26Z</time>
      </trkpt>
      <trkpt lat="45.65857" lon="4.65584">
        <ele>519</ele>
        <time>2020-08-20T12:55:45Z</time>
      </trkpt>
      <trkpt lat="45.65856" lon="4.65562">
        <ele>520</ele>
        <time>2020-08-20T12:56:05Z</time>
      </trkpt>
      <trkpt lat="45.65848" lon="4.65533">
        <ele>521</ele>
        <time>2020-08-20T12:56:34Z</time>
      </trkpt>
      <trkpt lat="45.65839" lon="4.65514">
        <ele>522</ele>
        <time>2020-08-20T12:56:56Z</time>
      </trkpt>
      <trkpt lat="45.658" lon="4.65465">
        <ele>526</ele>
        <time>2020-08-20T12:58:05Z</time>
      </trkpt>
      <trkpt lat="45.65716" lon="4.65351">
        <ele>525</ele>
        <time>2020-08-20T13:00:40Z</time>
      </trkpt>
      <trkpt lat="45.65686" lon="4.65318">
        <ele>524</ele>
        <time>2020-08-20T13:01:30Z</time>
      </trkpt>
      <trkpt lat="45.65651" lon="4.65289">
        <ele>525</ele>
        <time>2020-08-20T13:02:24Z</time>
      </trkpt>
      <trkpt lat="45.65643" lon="4.65291">
        <ele>526</ele>
        <time>2020-08-20T13:02:35Z</time>
      </trkpt>
      <trkpt lat="45.65629" lon="4.65276">
        <ele>527</ele>
        <time>2020-08-20T13:02:58Z</time>
      </trkpt>
      <trkpt lat="45.6559" lon="4.65248">
        <ele>531</ele>
        <time>2020-08-20T13:03:57Z</time>
      </trkpt>
      <trkpt lat="45.65557" lon="4.65218">
        <ele>535</ele>
        <time>2020-08-20T13:04:49Z</time>
      </trkpt>
      <trkpt lat="45.65686" lon="4.65026">
        <ele>521</ele>
        <time>2020-08-20T13:08:57Z</time>
      </trkpt>
      <trkpt lat="45.65765" lon="4.64961">
        <ele>517</ele>
        <time>2020-08-20T13:10:59Z</time>
      </trkpt>
      <trkpt lat="45.65793" lon="4.64943">
        <ele>515</ele>
        <time>2020-08-20T13:11:40Z</time>
      </trkpt>
      <trkpt lat="45.65798" lon="4.64931">
        <ele>515</ele>
        <time>2020-08-20T13:11:53Z</time>
      </trkpt>
      <trkpt lat="45.65824" lon="4.64909">
        <ele>513</ele>
        <time>2020-08-20T13:12:33Z</time>
      </trkpt>
      <trkpt lat="45.6587" lon="4.64861">
        <ele>509</ele>
        <time>2020-08-20T13:13:49Z</time>
      </trkpt>
      <trkpt lat="45.65912" lon="4.64788">
        <ele>501</ele>
        <time>2020-08-20T13:15:17Z</time>
      </trkpt>
      <trkpt lat="45.65922" lon="4.64657">
        <ele>495</ele>
        <time>2020-08-20T13:17:20Z</time>
      </trkpt>
      <trkpt lat="45.65934" lon="4.6459">
        <ele>487</ele>
        <time>2020-08-20T13:18:25Z</time>
      </trkpt>
      <trkpt lat="45.65926" lon="4.64534">
        <ele>482</ele>
        <time>2020-08-20T13:19:18Z</time>
      </trkpt>
      <trkpt lat="45.65919" lon="4.64478">
        <ele>476</ele>
        <time>2020-08-20T13:20:11Z</time>
      </trkpt>
      <trkpt lat="45.65958" lon="4.64438">
        <ele>467</ele>
        <time>2020-08-20T13:21:15Z</time>
      </trkpt>
      <trkpt lat="45.65982" lon="4.64327">
        <ele>457</ele>
        <time>2020-08-20T13:23:03Z</time>
      </trkpt>
      <trkpt lat="45.65964" lon="4.64272">
        <ele>452</ele>
        <time>2020-08-20T13:24:00Z</time>
      </trkpt>
      <trkpt lat="45.65924" lon="4.64208">
        <ele>443</ele>
        <time>2020-08-20T13:25:20Z</time>
      </trkpt>
      <trkpt lat="45.65933" lon="4.64162">
        <ele>434</ele>
        <time>2020-08-20T13:26:05Z</time>
      </trkpt>
      <trkpt lat="45.65953" lon="4.64142">
        <ele>431</ele>
        <time>2020-08-20T13:26:37Z</time>
      </trkpt>
      <trkpt lat="45.66021" lon="4.6412">
        <ele>423</ele>
        <time>2020-08-20T13:28:10Z</time>
      </trkpt>
      <trkpt lat="45.66018" lon="4.64059">
        <ele>414</ele>
        <time>2020-08-20T13:29:07Z</time>
      </trkpt>
      <trkpt lat="45.65994" lon="4.64011">
        <ele>410</ele>
        <time>2020-08-20T13:30:02Z</time>
      </trkpt>
      <trkpt lat="45.65972" lon="4.63922">
        <ele>410</ele>
        <time>2020-08-20T13:31:30Z</time>
      </trkpt>
      <trkpt lat="45.65981" lon="4.63902">
        <ele>412</ele>
        <time>2020-08-20T13:31:53Z</time>
      </trkpt>
      <trkpt lat="45.65913" lon="4.6395">
        <ele>413</ele>
        <time>2020-08-20T13:33:34Z</time>
      </trkpt>
      <trkpt lat="45.65887" lon="4.63935">
        <ele>417</ele>
        <time>2020-08-20T13:34:11Z</time>
      </trkpt>
      <trkpt lat="45.65817" lon="4.63924">
        <ele>426</ele>
        <time>2020-08-20T13:35:45Z</time>
      </trkpt>
      <trkpt lat="45.65778" lon="4.63932">
        <ele>433</ele>
        <time>2020-08-20T13:36:38Z</time>
      </trkpt>
      <trkpt lat="45.65753" lon="4.63954">
        <ele>439</ele>
        <time>2020-08-20T13:37:17Z</time>
      </trkpt>
      <trkpt lat="45.6574" lon="4.63993">
        <ele>447</ele>
        <time>2020-08-20T13:37:57Z</time>
      </trkpt>
      <trkpt lat="45.65716" lon="4.64015">
        <ele>453</ele>
        <time>2020-08-20T13:38:35Z</time>
      </trkpt>
      <trkpt lat="45.65646" lon="4.64058">
        <ele>470</ele>
        <time>2020-08-20T13:40:17Z</time>
      </trkpt>
      <trkpt lat="45.65592" lon="4.64108">
        <ele>481</ele>
        <time>2020-08-20T13:41:43Z</time>
      </trkpt>
      <trkpt lat="45.65551" lon="4.6415">
        <ele>484</ele>
        <time>2020-08-20T13:42:50Z</time>
      </trkpt>
      <trkpt lat="45.6553" lon="4.64187">
        <ele>487</ele>
        <time>2020-08-20T13:43:34Z</time>
      </trkpt>
      <trkpt lat="45.65492" lon="4.64237">
        <ele>492</ele>
        <time>2020-08-20T13:44:43Z</time>
      </trkpt>
      <trkpt lat="45.65481" lon="4.64248">
        <ele>495</ele>
        <time>2020-08-20T13:45:01Z</time>
      </trkpt>
      <trkpt lat="45.65467" lon="4.64276">
        <ele>497</ele>
        <time>2020-08-20T13:45:33Z</time>
      </trkpt>
      <trkpt lat="45.65458" lon="4.64282">
        <ele>498</ele>
        <time>2020-08-20T13:45:47Z</time>
      </trkpt>
      <trkpt lat="45.65443" lon="4.64284">
        <ele>500</ele>
        <time>2020-08-20T13:46:07Z</time>
      </trkpt>
      <trkpt lat="45.65375" lon="4.64275">
        <ele>511</ele>
        <time>2020-08-20T13:47:38Z</time>
      </trkpt>
      <trkpt lat="45.65346" lon="4.64275">
        <ele>517</ele>
        <time>2020-08-20T13:48:17Z</time>
      </trkpt>
      <trkpt lat="45.65328" lon="4.64286">
        <ele>521</ele>
        <time>2020-08-20T13:48:43Z</time>
      </trkpt>
      <trkpt lat="45.65304" lon="4.64303">
        <ele>525</ele>
        <time>2020-08-20T13:49:18Z</time>
      </trkpt>
      <trkpt lat="45.65236" lon="4.64334">
        <ele>535</ele>
        <time>2020-08-20T13:50:54Z</time>
      </trkpt>
      <trkpt lat="45.65145" lon="4.64429">
        <ele>541</ele>
        <time>2020-08-20T13:53:24Z</time>
      </trkpt>
      <trkpt lat="45.65122" lon="4.64443">
        <ele>542</ele>
        <time>2020-08-20T13:53:57Z</time>
      </trkpt>
      <trkpt lat="45.65057" lon="4.64459">
        <ele>543</ele>
        <time>2020-08-20T13:55:25Z</time>
      </trkpt>
      <trkpt lat="45.65037" lon="4.64421">
        <ele>543</ele>
        <time>2020-08-20T13:56:10Z</time>
      </trkpt>
      <trkpt lat="45.64996" lon="4.64358">
        <ele>547</ele>
        <time>2020-08-20T13:57:30Z</time>
      </trkpt>
      <trkpt lat="45.64971" lon="4.64301">
        <ele>550</ele>
        <time>2020-08-20T13:58:33Z</time>
      </trkpt>
      <trkpt lat="45.64938" lon="4.64241">
        <ele>554</ele>
        <time>2020-08-20T13:59:44Z</time>
      </trkpt>
      <trkpt lat="45.64929" lon="4.64243">
        <ele>554</ele>
        <time>2020-08-20T13:59:56Z</time>
      </trkpt>
      <trkpt lat="45.6492" lon="4.64248">
        <ele>554</ele>
        <time>2020-08-20T14:00:09Z</time>
      </trkpt>
      <trkpt lat="45.64894" lon="4.6425">
        <ele>551</ele>
        <time>2020-08-20T14:00:44Z</time>
      </trkpt>
      <trkpt lat="45.64884" lon="4.64242">
        <ele>550</ele>
        <time>2020-08-20T14:00:59Z</time>
      </trkpt>
      <trkpt lat="45.64872" lon="4.642">
        <ele>550</ele>
        <time>2020-08-20T14:01:41Z</time>
      </trkpt>
      <trkpt lat="45.64859" lon="4.64172">
        <ele>550</ele>
        <time>2020-08-20T14:02:13Z</time>
      </trkpt>
      <trkpt lat="45.64846" lon="4.64151">
        <ele>550</ele>
        <time>2020-08-20T14:02:39Z</time>
      </trkpt>
      <trkpt lat="45.64802" lon="4.64129">
        <ele>549</ele>
        <time>2020-08-20T14:03:41Z</time>
      </trkpt>
      <trkpt lat="45.64772" lon="4.64119">
        <ele>547</ele>
        <time>2020-08-20T14:04:22Z</time>
      </trkpt>
      <trkpt lat="45.64692" lon="4.64153">
        <ele>540</ele>
        <time>2020-08-20T14:06:14Z</time>
      </trkpt>
      <trkpt lat="45.64667" lon="4.64151">
        <ele>539</ele>
        <time>2020-08-20T14:06:47Z</time>
      </trkpt>
      <trkpt lat="45.64628" lon="4.64122">
        <ele>541</ele>
        <time>2020-08-20T14:07:46Z</time>
      </trkpt>
      <trkpt lat="45.64616" lon="4.6412">
        <ele>542</ele>
        <time>2020-08-20T14:08:02Z</time>
      </trkpt>
      <trkpt lat="45.64604" lon="4.64128">
        <ele>541</ele>
        <time>2020-08-20T14:08:19Z</time>
      </trkpt>
      <trkpt lat="45.64592" lon="4.64162">
        <ele>539</ele>
        <time>2020-08-20T14:08:55Z</time>
      </trkpt>
      <trkpt lat="45.64578" lon="4.64192">
        <ele>539</ele>
        <time>2020-08-20T14:09:29Z</time>
      </trkpt>
      <trkpt lat="45.64555" lon="4.64225">
        <ele>539</ele>
        <time>2020-08-20T14:10:12Z</time>
      </trkpt>
      <trkpt lat="45.64534" lon="4.64239">
        <ele>540</ele>
        <time>2020-08-20T14:10:43Z</time>
      </trkpt>
      <trkpt lat="45.64485" lon="4.64251">
        <ele>540</ele>
        <time>2020-08-20T14:11:49Z</time>
      </trkpt>
      <trkpt lat="45.64485" lon="4.64219">
        <ele>539</ele>
        <time>2020-08-20T14:12:19Z</time>
      </trkpt>
      <trkpt lat="45.64492" lon="4.64148">
        <ele>541</ele>
        <time>2020-08-20T14:13:26Z</time>
      </trkpt>
      <trkpt lat="45.64495" lon="4.64086">
        <ele>544</ele>
        <time>2020-08-20T14:14:24Z</time>
      </trkpt>
      <trkpt lat="45.6449" lon="4.64039">
        <ele>548</ele>
        <time>2020-08-20T14:15:08Z</time>
      </trkpt>
      <trkpt lat="45.64479" lon="4.64018">
        <ele>549</ele>
        <time>2020-08-20T14:15:33Z</time>
      </trkpt>
      <trkpt lat="45.64424" lon="4.63995">
        <ele>551</ele>
        <time>2020-08-20T14:16:49Z</time>
      </trkpt>
      <trkpt lat="45.6436" lon="4.63991">
        <ele>551</ele>
        <time>2020-08-20T14:18:15Z</time>
      </trkpt>
      <trkpt lat="45.64306" lon="4.63984">
        <ele>550</ele>
        <time>2020-08-20T14:19:27Z</time>
      </trkpt>
      <trkpt lat="45.64271" lon="4.63977">
        <ele>548</ele>
        <time>2020-08-20T14:20:14Z</time>
      </trkpt>
      <trkpt lat="45.64227" lon="4.63964">
        <ele>544</ele>
        <time>2020-08-20T14:21:14Z</time>
      </trkpt>
      <trkpt lat="45.64204" lon="4.63949">
        <ele>540</ele>
        <time>2020-08-20T14:21:48Z</time>
      </trkpt>
      <trkpt lat="45.64187" lon="4.63924">
        <ele>537</ele>
        <time>2020-08-20T14:22:21Z</time>
      </trkpt>
      <trkpt lat="45.64179" lon="4.63831">
        <ele>532</ele>
        <time>2020-08-20T14:23:48Z</time>
      </trkpt>
      <trkpt lat="45.64152" lon="4.63864">
        <ele>526</ele>
        <time>2020-08-20T14:24:35Z</time>
      </trkpt>
      <trkpt lat="45.6414" lon="4.63895">
        <ele>524</ele>
        <time>2020-08-20T14:25:09Z</time>
      </trkpt>
      <trkpt lat="45.64132" lon="4.63924">
        <ele>523</ele>
        <time>2020-08-20T14:25:38Z</time>
      </trkpt>
      <trkpt lat="45.64128" lon="4.63925">
        <ele>522</ele>
        <time>2020-08-20T14:25:43Z</time>
      </trkpt>
      <trkpt lat="45.64127" lon="4.63922">
        <ele>522</ele>
        <time>2020-08-20T14:25:46Z</time>
      </trkpt>
      <trkpt lat="45.64115" lon="4.6383">
        <ele>514</ele>
        <time>2020-08-20T14:27:13Z</time>
      </trkpt>
      <trkpt lat="45.64115" lon="4.63803">
        <ele>513</ele>
        <time>2020-08-20T14:27:39Z</time>
      </trkpt>
      <trkpt lat="45.64117" lon="4.63775">
        <ele>512</ele>
        <time>2020-08-20T14:28:05Z</time>
      </trkpt>
      <trkpt lat="45.64128" lon="4.63756">
        <ele>513</ele>
        <time>2020-08-20T14:28:28Z</time>
      </trkpt>
      <trkpt lat="45.64138" lon="4.63727">
        <ele>516</ele>
        <time>2020-08-20T14:28:58Z</time>
      </trkpt>
      <trkpt lat="45.64132" lon="4.63703">
        <ele>517</ele>
        <time>2020-08-20T14:29:22Z</time>
      </trkpt>
      <trkpt lat="45.64112" lon="4.6369">
        <ele>514</ele>
        <time>2020-08-20T14:29:51Z</time>
      </trkpt>
      <trkpt lat="45.64108" lon="4.63681">
        <ele>514</ele>
        <time>2020-08-20T14:30:01Z</time>
      </trkpt>
      <trkpt lat="45.64111" lon="4.63625">
        <ele>518</ele>
        <time>2020-08-20T14:30:54Z</time>
      </trkpt>
      <trkpt lat="45.64107" lon="4.63598">
        <ele>519</ele>
        <time>2020-08-20T14:31:19Z</time>
      </trkpt>
      <trkpt lat="45.641" lon="4.63579">
        <ele>519</ele>
        <time>2020-08-20T14:31:39Z</time>
      </trkpt>
      <trkpt lat="45.64089" lon="4.63579">
        <ele>517</ele>
        <time>2020-08-20T14:31:54Z</time>
      </trkpt>
      <trkpt lat="45.64078" lon="4.63585">
        <ele>515</ele>
        <time>2020-08-20T14:32:10Z</time>
      </trkpt>
      <trkpt lat="45.64067" lon="4.63606">
        <ele>515</ele>
        <time>2020-08-20T14:32:34Z</time>
      </trkpt>
      <trkpt lat="45.64058" lon="4.63631">
        <ele>514</ele>
        <time>2020-08-20T14:33:00Z</time>
      </trkpt>
      <trkpt lat="45.64024" lon="4.63701">
        <ele>510</ele>
        <time>2020-08-20T14:34:20Z</time>
      </trkpt>
      <trkpt lat="45.64014" lon="4.63718">
        <ele>508</ele>
        <time>2020-08-20T14:34:41Z</time>
      </trkpt>
      <trkpt lat="45.64002" lon="4.63745">
        <ele>505</ele>
        <time>2020-08-20T14:35:11Z</time>
      </trkpt>
      <trkpt lat="45.63939" lon="4.63769">
        <ele>503</ele>
        <time>2020-08-20T14:36:38Z</time>
      </trkpt>
      <trkpt lat="45.63924" lon="4.63773">
        <ele>503</ele>
        <time>2020-08-20T14:36:58Z</time>
      </trkpt>
      <trkpt lat="45.63902" lon="4.63794">
        <ele>503</ele>
        <time>2020-08-20T14:37:33Z</time>
      </trkpt>
      <trkpt lat="45.63897" lon="4.63804">
        <ele>502</ele>
        <time>2020-08-20T14:37:45Z</time>
      </trkpt>
      <trkpt lat="45.63884" lon="4.63886">
        <ele>496</ele>
        <time>2020-08-20T14:39:03Z</time>
      </trkpt>
      <trkpt lat="45.63862" lon="4.63976">
        <ele>492</ele>
        <time>2020-08-20T14:40:32Z</time>
      </trkpt>
      <trkpt lat="45.63844" lon="4.64022">
        <ele>490</ele>
        <time>2020-08-20T14:41:21Z</time>
      </trkpt>
      <trkpt lat="45.6383" lon="4.64097">
        <ele>487</ele>
        <time>2020-08-20T14:42:34Z</time>
      </trkpt>
      <trkpt lat="45.63812" lon="4.6414">
        <ele>484</ele>
        <time>2020-08-20T14:43:20Z</time>
      </trkpt>
      <trkpt lat="45.63796" lon="4.64168">
        <ele>481</ele>
        <time>2020-08-20T14:43:54Z</time>
      </trkpt>
      <trkpt lat="45.63755" lon="4.64221">
        <ele>476</ele>
        <time>2020-08-20T14:45:08Z</time>
      </trkpt>
      <trkpt lat="45.63782" lon="4.64254">
        <ele>478</ele>
        <time>2020-08-20T14:45:55Z</time>
      </trkpt>
      <trkpt lat="45.63865" lon="4.6437">
        <ele>473</ele>
        <time>2020-08-20T14:48:30Z</time>
      </trkpt>
      <trkpt lat="45.6388" lon="4.64384">
        <ele>472</ele>
        <time>2020-08-20T14:48:54Z</time>
      </trkpt>
      <trkpt lat="45.63888" lon="4.64386">
        <ele>471</ele>
        <time>2020-08-20T14:49:05Z</time>
      </trkpt>
      <trkpt lat="45.63893" lon="4.64398">
        <ele>471</ele>
        <time>2020-08-20T14:49:18Z</time>
      </trkpt>
      <trkpt lat="45.63904" lon="4.64395">
        <ele>470</ele>
        <time>2020-08-20T14:49:33Z</time>
      </trkpt>
      <trkpt lat="45.63912" lon="4.6438">
        <ele>470</ele>
        <time>2020-08-20T14:49:50Z</time>
      </trkpt>
      <trkpt lat="45.63922" lon="4.64331">
        <ele>471</ele>
        <time>2020-08-20T14:50:38Z</time>
      </trkpt>
      <trkpt lat="45.63932" lon="4.64308">
        <ele>473</ele>
        <time>2020-08-20T14:51:03Z</time>
      </trkpt>
      <trkpt lat="45.63943" lon="4.64302">
        <ele>473</ele>
        <time>2020-08-20T14:51:19Z</time>
      </trkpt>
      <trkpt lat="45.63951" lon="4.64317">
        <ele>473</ele>
        <time>2020-08-20T14:51:37Z</time>
      </trkpt>
      <trkpt lat="45.6396" lon="4.64347">
        <ele>471</ele>
        <time>2020-08-20T14:52:07Z</time>
      </trkpt>
      <trkpt lat="45.63976" lon="4.64382">
        <ele>469</ele>
        <time>2020-08-20T14:52:46Z</time>
      </trkpt>
      <trkpt lat="45.63997" lon="4.6439">
        <ele>468</ele>
        <time>2020-08-20T14:53:15Z</time>
      </trkpt>
      <trkpt lat="45.64005" lon="4.64396">
        <ele>468</ele>
        <time>2020-08-20T14:53:27Z</time>
      </trkpt>
      <trkpt lat="45.64029" lon="4.64429">
        <ele>472</ele>
        <time>2020-08-20T14:54:12Z</time>
      </trkpt>
      <trkpt lat="45.64057" lon="4.64426">
        <ele>478</ele>
        <time>2020-08-20T14:54:49Z</time>
      </trkpt>
      <trkpt lat="45.64101" lon="4.6441">
        <ele>486</ele>
        <time>2020-08-20T14:55:50Z</time>
      </trkpt>
      <trkpt lat="45.64136" lon="4.64394">
        <ele>492</ele>
        <time>2020-08-20T14:56:39Z</time>
      </trkpt>
      <trkpt lat="45.64182" lon="4.64381">
        <ele>500</ele>
        <time>2020-08-20T14:57:41Z</time>
      </trkpt>
      <trkpt lat="45.64194" lon="4.64382">
        <ele>502</ele>
        <time>2020-08-20T14:57:57Z</time>
      </trkpt>
      <trkpt lat="45.64192" lon="4.6439">
        <ele>502</ele>
        <time>2020-08-20T14:58:05Z</time>
      </trkpt>
      <trkpt lat="45.64195" lon="4.64406">
        <ele>503</ele>
        <time>2020-08-20T14:58:21Z</time>
      </trkpt>
      <trkpt lat="45.64209" lon="4.64437">
        <ele>506</ele>
        <time>2020-08-20T14:58:55Z</time>
      </trkpt>
      <trkpt lat="45.6424" lon="4.64483">
        <ele>509</ele>
        <time>2020-08-20T14:59:55Z</time>
      </trkpt>
      <trkpt lat="45.64262" lon="4.64509">
        <ele>511</ele>
        <time>2020-08-20T15:00:33Z</time>
      </trkpt>
      <trkpt lat="45.64282" lon="4.64547">
        <ele>511</ele>
        <time>2020-08-20T15:01:17Z</time>
      </trkpt>
      <trkpt lat="45.64294" lon="4.64636">
        <ele>508</ele>
        <time>2020-08-20T15:02:42Z</time>
      </trkpt>
      <trkpt lat="45.6428" lon="4.64606">
        <ele>507</ele>
        <time>2020-08-20T15:03:15Z</time>
      </trkpt>
      <trkpt lat="45.64282" lon="4.64619">
        <ele>507</ele>
        <time>2020-08-20T15:03:28Z</time>
      </trkpt>
      <trkpt lat="45.64277" lon="4.64631">
        <ele>506</ele>
        <time>2020-08-20T15:03:41Z</time>
      </trkpt>
      <trkpt lat="45.64275" lon="4.64634">
        <ele>505</ele>
        <time>2020-08-20T15:03:45Z</time>
      </trkpt>
      <trkpt lat="45.64269" lon="4.64636">
        <ele>504</ele>
        <time>2020-08-20T15:03:53Z</time>
      </trkpt>
      <trkpt lat="45.64245" lon="4.64682">
        <ele>500</ele>
        <time>2020-08-20T15:04:47Z</time>
      </trkpt>
      <trkpt lat="45.64229" lon="4.64717">
        <ele>497</ele>
        <time>2020-08-20T15:05:26Z</time>
      </trkpt>
      <trkpt lat="45.64222" lon="4.64745">
        <ele>496</ele>
        <time>2020-08-20T15:05:53Z</time>
      </trkpt>
      <trkpt lat="45.64209" lon="4.64815">
        <ele>495</ele>
        <time>2020-08-20T15:07:01Z</time>
      </trkpt>
      <trkpt lat="45.64201" lon="4.64883">
        <ele>496</ele>
        <time>2020-08-20T15:08:05Z</time>
      </trkpt>
      <trkpt lat="45.64183" lon="4.64927">
        <ele>496</ele>
        <time>2020-08-20T15:08:53Z</time>
      </trkpt>
      <trkpt lat="45.64157" lon="4.64959">
        <ele>496</ele>
        <time>2020-08-20T15:09:39Z</time>
      </trkpt>
      <trkpt lat="45.64086" lon="4.65116">
        <ele>486</ele>
        <time>2020-08-20T15:12:33Z</time>
      </trkpt>
      <trkpt lat="45.64083" lon="4.65145">
        <ele>485</ele>
        <time>2020-08-20T15:13:00Z</time>
      </trkpt>
      <trkpt lat="45.64084" lon="4.65166">
        <ele>484</ele>
        <time>2020-08-20T15:13:20Z</time>
      </trkpt>
      <trkpt lat="45.64091" lon="4.65186">
        <ele>482</ele>
        <time>2020-08-20T15:13:41Z</time>
      </trkpt>
      <trkpt lat="45.64082" lon="4.65279">
        <ele>475</ele>
        <time>2020-08-20T15:15:08Z</time>
      </trkpt>
      <trkpt lat="45.6407" lon="4.65322">
        <ele>470</ele>
        <time>2020-08-20T15:15:52Z</time>
      </trkpt>
      <trkpt lat="45.6407" lon="4.65334">
        <ele>468</ele>
        <time>2020-08-20T15:16:03Z</time>
      </trkpt>
      <trkpt lat="45.64077" lon="4.65341">
        <ele>467</ele>
        <time>2020-08-20T15:16:14Z</time>
      </trkpt>
      <trkpt lat="45.64096" lon="4.65345">
        <ele>466</ele>
        <time>2020-08-20T15:16:40Z</time>
      </trkpt>
      <trkpt lat="45.64161" lon="4.65355">
        <ele>461</ele>
        <time>2020-08-20T15:18:07Z</time>
      </trkpt>
      <trkpt lat="45.64202" lon="4.65364">
        <ele>460</ele>
        <time>2020-08-20T15:19:02Z</time>
      </trkpt>
      <trkpt lat="45.64204" lon="4.6537">
        <ele>459</ele>
        <time>2020-08-20T15:19:09Z</time>
      </trkpt>
      <trkpt lat="45.64204" lon="4.65376">
        <ele>459</ele>
        <time>2020-08-20T15:19:14Z</time>
      </trkpt>
      <trkpt lat="45.64199" lon="4.65384">
        <ele>459</ele>
        <time>2020-08-20T15:19:24Z</time>
      </trkpt>
      <trkpt lat="45.64197" lon="4.65455">
        <ele>460</ele>
        <time>2020-08-20T15:20:31Z</time>
      </trkpt>
      <trkpt lat="45.64201" lon="4.65506">
        <ele>465</ele>
        <time>2020-08-20T15:21:18Z</time>
      </trkpt>
      <trkpt lat="45.64206" lon="4.65516">
        <ele>467</ele>
        <time>2020-08-20T15:21:30Z</time>
      </trkpt>
      <trkpt lat="45.64201" lon="4.65506">
        <ele>465</ele>
        <time>2020-08-20T15:21:41Z</time>
      </trkpt>
      <trkpt lat="45.64197" lon="4.65455">
        <ele>460</ele>
        <time>2020-08-20T15:22:29Z</time>
      </trkpt>
      <trkpt lat="45.64199" lon="4.65384">
        <ele>459</ele>
        <time>2020-08-20T15:23:36Z</time>
      </trkpt>
      <trkpt lat="45.64191" lon="4.65398">
        <ele>457</ele>
        <time>2020-08-20T15:23:52Z</time>
      </trkpt>
      <trkpt lat="45.64181" lon="4.65425">
        <ele>456</ele>
        <time>2020-08-20T15:24:21Z</time>
      </trkpt>
      <trkpt lat="45.64172" lon="4.65468">
        <ele>458</ele>
        <time>2020-08-20T15:25:03Z</time>
      </trkpt>
      <trkpt lat="45.64173" lon="4.65524">
        <ele>463</ele>
        <time>2020-08-20T15:25:55Z</time>
      </trkpt>
      <trkpt lat="45.64175" lon="4.65536">
        <ele>465</ele>
        <time>2020-08-20T15:26:07Z</time>
      </trkpt>
      <trkpt lat="45.64179" lon="4.65539">
        <ele>465</ele>
        <time>2020-08-20T15:26:13Z</time>
      </trkpt>
      <trkpt lat="45.64212" lon="4.65516">
        <ele>468</ele>
        <time>2020-08-20T15:27:02Z</time>
      </trkpt>
      <trkpt lat="45.64226" lon="4.65516">
        <ele>470</ele>
        <time>2020-08-20T15:27:20Z</time>
      </trkpt>
      <trkpt lat="45.6424" lon="4.6552">
        <ele>472</ele>
        <time>2020-08-20T15:27:39Z</time>
      </trkpt>
      <trkpt lat="45.64278" lon="4.65536">
        <ele>476</ele>
        <time>2020-08-20T15:28:32Z</time>
      </trkpt>
      <trkpt lat="45.64303" lon="4.6556">
        <ele>478</ele>
        <time>2020-08-20T15:29:12Z</time>
      </trkpt>
      <trkpt lat="45.64327" lon="4.65588">
        <ele>482</ele>
        <time>2020-08-20T15:29:54Z</time>
      </trkpt>
      <trkpt lat="45.64403" lon="4.65646">
        <ele>493</ele>
        <time>2020-08-20T15:31:49Z</time>
      </trkpt>
      <trkpt lat="45.64445" lon="4.65693">
        <ele>499</ele>
        <time>2020-08-20T15:33:00Z</time>
      </trkpt>
      <trkpt lat="45.64472" lon="4.65732">
        <ele>503</ele>
        <time>2020-08-20T15:33:51Z</time>
      </trkpt>
      <trkpt lat="45.64494" lon="4.6576">
        <ele>506</ele>
        <time>2020-08-20T15:34:30Z</time>
      </trkpt>
      <trkpt lat="45.64663" lon="4.6592">
        <ele>519</ele>
        <time>2020-08-20T15:39:01Z</time>
      </trkpt>
      <trkpt lat="45.64705" lon="4.65945">
        <ele>522</ele>
        <time>2020-08-20T15:40:01Z</time>
      </trkpt>
      <trkpt lat="45.64734" lon="4.65958">
        <ele>523</ele>
        <time>2020-08-20T15:40:42Z</time>
      </trkpt>
      <trkpt lat="45.64796" lon="4.65978">
        <ele>527</ele>
        <time>2020-08-20T15:42:07Z</time>
      </trkpt>
      <trkpt lat="45.64826" lon="4.65985">
        <ele>528</ele>
        <time>2020-08-20T15:42:47Z</time>
      </trkpt>
      <trkpt lat="45.64869" lon="4.65985">
        <ele>530</ele>
        <time>2020-08-20T15:43:45Z</time>
      </trkpt>
      <trkpt lat="45.64896" lon="4.65988">
        <ele>531</ele>
        <time>2020-08-20T15:44:21Z</time>
      </trkpt>
      <trkpt lat="45.64956" lon="4.65988">
        <ele>533</ele>
        <time>2020-08-20T15:45:41Z</time>
      </trkpt>
      <trkpt lat="45.64971" lon="4.65984">
        <ele>534</ele>
        <time>2020-08-20T15:46:01Z</time>
      </trkpt>
      <trkpt lat="45.64983" lon="4.65975">
        <ele>534</ele>
        <time>2020-08-20T15:46:19Z</time>
      </trkpt>
      <trkpt lat="45.6499" lon="4.65976">
        <ele>534</ele>
        <time>2020-08-20T15:46:29Z</time>
      </trkpt>
      <trkpt lat="45.65007" lon="4.65986">
        <ele>534</ele>
        <time>2020-08-20T15:46:53Z</time>
      </trkpt>
      <trkpt lat="45.65007" lon="4.65998">
        <ele>534</ele>
        <time>2020-08-20T15:47:05Z</time>
      </trkpt>
      <trkpt lat="45.65009" lon="4.65996">
        <ele>534</ele>
        <time>2020-08-20T15:47:08Z</time>
      </trkpt>
      <trkpt lat="45.65007" lon="4.65998">
        <ele>534</ele>
        <time>2020-08-20T15:47:11Z</time>
      </trkpt>
      <trkpt lat="45.64998" lon="4.66032">
        <ele>535</ele>
        <time>2020-08-20T15:47:45Z</time>
      </trkpt>
      <trkpt lat="45.64982" lon="4.66063">
        <ele>534</ele>
        <time>2020-08-20T15:48:21Z</time>
      </trkpt>
      <trkpt lat="45.64907" lon="4.66162">
        <ele>535</ele>
        <time>2020-08-20T15:50:37Z</time>
      </trkpt>
      <trkpt lat="45.64898" lon="4.66189">
        <ele>533</ele>
        <time>2020-08-20T15:51:05Z</time>
      </trkpt>
      <trkpt lat="45.64901" lon="4.66192">
        <ele>533</ele>
        <time>2020-08-20T15:51:10Z</time>
      </trkpt>
      <trkpt lat="45.64933" lon="4.66225">
        <ele>532</ele>
        <time>2020-08-20T15:52:03Z</time>
      </trkpt>
      <trkpt lat="45.65015" lon="4.66269">
        <ele>528</ele>
        <time>2020-08-20T15:53:59Z</time>
      </trkpt>
      <trkpt lat="45.6503" lon="4.66268">
        <ele>527</ele>
        <time>2020-08-20T15:54:19Z</time>
      </trkpt>
      <trkpt lat="45.65063" lon="4.66227">
        <ele>526</ele>
        <time>2020-08-20T15:55:18Z</time>
      </trkpt>
      <trkpt lat="45.65094" lon="4.66196">
        <ele>525</ele>
        <time>2020-08-20T15:56:08Z</time>
      </trkpt>
      <trkpt lat="45.65122" lon="4.66177">
        <ele>524</ele>
        <time>2020-08-20T15:56:50Z</time>
      </trkpt>
      <trkpt lat="45.65172" lon="4.66171">
        <ele>520</ele>
        <time>2020-08-20T15:57:57Z</time>
      </trkpt>
      <trkpt lat="45.65211" lon="4.66186">
        <ele>515</ele>
        <time>2020-08-20T15:58:50Z</time>
      </trkpt>
      <trkpt lat="45.65252" lon="4.6618">
        <ele>511</ele>
        <time>2020-08-20T15:59:45Z</time>
      </trkpt>
      <trkpt lat="45.6529" lon="4.66158">
        <ele>505</ele>
        <time>2020-08-20T16:00:40Z</time>
      </trkpt>
      <trkpt lat="45.65323" lon="4.66152">
        <ele>499</ele>
        <time>2020-08-20T16:01:25Z</time>
      </trkpt>
      <trkpt lat="45.65346" lon="4.66156">
        <ele>495</ele>
        <time>2020-08-20T16:01:55Z</time>
      </trkpt>
      <trkpt lat="45.65377" lon="4.66192">
        <ele>490</ele>
        <time>2020-08-20T16:02:49Z</time>
      </trkpt>
      <trkpt lat="45.6539" lon="4.66204">
        <ele>488</ele>
        <time>2020-08-20T16:03:09Z</time>
      </trkpt>
      <trkpt lat="45.65399" lon="4.6623">
        <ele>486</ele>
        <time>2020-08-20T16:03:36Z</time>
      </trkpt>
      <trkpt lat="45.65403" lon="4.66258">
        <ele>485</ele>
        <time>2020-08-20T16:04:03Z</time>
      </trkpt>
      <trkpt lat="45.65461" lon="4.66368">
        <ele>472</ele>
        <time>2020-08-20T16:06:12Z</time>
      </trkpt>
      <trkpt lat="45.65492" lon="4.66422">
        <ele>467</ele>
        <time>2020-08-20T16:07:17Z</time>
      </trkpt>
      <trkpt lat="45.65486" lon="4.66423">
        <ele>467</ele>
        <time>2020-08-20T16:07:25Z</time>
      </trkpt>
      <trkpt lat="45.65445" lon="4.66427">
        <ele>468</ele>
        <time>2020-08-20T16:08:20Z</time>
      </trkpt>
      <trkpt lat="45.65428" lon="4.66435">
        <ele>467</ele>
        <time>2020-08-20T16:08:44Z</time>
      </trkpt>
      <trkpt lat="45.654" lon="4.66489">
        <ele>462</ele>
        <time>2020-08-20T16:09:46Z</time>
      </trkpt>
      <trkpt lat="45.65363" lon="4.66539">
        <ele>462</ele>
        <time>2020-08-20T16:10:54Z</time>
      </trkpt>
      <trkpt lat="45.6535" lon="4.66563">
        <ele>461</ele>
        <time>2020-08-20T16:11:23Z</time>
      </trkpt>
      <trkpt lat="45.6532" lon="4.66608">
        <ele>461</ele>
        <time>2020-08-20T16:12:21Z</time>
      </trkpt>
      <trkpt lat="45.65278" lon="4.66665">
        <ele>463</ele>
        <time>2020-08-20T16:13:38Z</time>
      </trkpt>
      <trkpt lat="45.65204" lon="4.66708">
        <ele>464</ele>
        <time>2020-08-20T16:15:24Z</time>
      </trkpt>
      <trkpt lat="45.65183" lon="4.66706">
        <ele>465</ele>
        <time>2020-08-20T16:15:52Z</time>
      </trkpt>
      <trkpt lat="45.65169" lon="4.66698">
        <ele>466</ele>
        <time>2020-08-20T16:16:13Z</time>
      </trkpt>
      <trkpt lat="45.65166" lon="4.66704">
        <ele>467</ele>
        <time>2020-08-20T16:16:19Z</time>
      </trkpt>
      <trkpt lat="45.65166" lon="4.66705">
        <ele>467</ele>
        <time>2020-08-20T16:16:20Z</time>
      </trkpt>
      <trkpt lat="45.65167" lon="4.66753">
        <ele>466</ele>
        <time>2020-08-20T16:17:05Z</time>
      </trkpt>
      <trkpt lat="45.65187" lon="4.6679">
        <ele>466</ele>
        <time>2020-08-20T16:17:49Z</time>
      </trkpt>
      <trkpt lat="45.65199" lon="4.66833">
        <ele>466</ele>
        <time>2020-08-20T16:18:32Z</time>
      </trkpt>
      <trkpt lat="45.65195" lon="4.66879">
        <ele>467</ele>
        <time>2020-08-20T16:19:15Z</time>
      </trkpt>
      <trkpt lat="45.65163" lon="4.66944">
        <ele>469</ele>
        <time>2020-08-20T16:20:29Z</time>
      </trkpt>
      <trkpt lat="45.65136" lon="4.66976">
        <ele>472</ele>
        <time>2020-08-20T16:21:16Z</time>
      </trkpt>
      <trkpt lat="45.65116" lon="4.66992">
        <ele>473</ele>
        <time>2020-08-20T16:21:47Z</time>
      </trkpt>
      <trkpt lat="45.65087" lon="4.66998">
        <ele>476</ele>
        <time>2020-08-20T16:22:26Z</time>
      </trkpt>
      <trkpt lat="45.65072" lon="4.6701">
        <ele>477</ele>
        <time>2020-08-20T16:22:49Z</time>
      </trkpt>
      <trkpt lat="45.65028" lon="4.67067">
        <ele>475</ele>
        <time>2020-08-20T16:24:08Z</time>
      </trkpt>
      <trkpt lat="45.64965" lon="4.67122">
        <ele>472</ele>
        <time>2020-08-20T16:25:47Z</time>
      </trkpt>
      <trkpt lat="45.64919" lon="4.6714">
        <ele>473</ele>
        <time>2020-08-20T16:26:50Z</time>
      </trkpt>
      <trkpt lat="45.64883" lon="4.6716">
        <ele>474</ele>
        <time>2020-08-20T16:27:42Z</time>
      </trkpt>
      <trkpt lat="45.64875" lon="4.67168">
        <ele>474</ele>
        <time>2020-08-20T16:27:55Z</time>
      </trkpt>
      <trkpt lat="45.6487" lon="4.67196">
        <ele>474</ele>
        <time>2020-08-20T16:28:22Z</time>
      </trkpt>
      <trkpt lat="45.64845" lon="4.67264">
        <ele>474</ele>
        <time>2020-08-20T16:29:33Z</time>
      </trkpt>
      <trkpt lat="45.64826" lon="4.67322">
        <ele>474</ele>
        <time>2020-08-20T16:30:33Z</time>
      </trkpt>
      <trkpt lat="45.64852" lon="4.67423">
        <ele>469</ele>
        <time>2020-08-20T16:32:14Z</time>
      </trkpt>
      <trkpt lat="45.64847" lon="4.67513">
        <ele>467</ele>
        <time>2020-08-20T16:33:38Z</time>
      </trkpt>
      <trkpt lat="45.64838" lon="4.67525">
        <ele>466</ele>
        <time>2020-08-20T16:33:54Z</time>
      </trkpt>
      <trkpt lat="45.6474" lon="4.67536">
        <ele>471</ele>
        <time>2020-08-20T16:36:05Z</time>
      </trkpt>
      <trkpt lat="45.64706" lon="4.67528">
        <ele>473</ele>
        <time>2020-08-20T16:36:51Z</time>
      </trkpt>
      <trkpt lat="45.64698" lon="4.67525">
        <ele>474</ele>
        <time>2020-08-20T16:37:02Z</time>
      </trkpt>
      <trkpt lat="45.64693" lon="4.6751">
        <ele>476</ele>
        <time>2020-08-20T16:37:18Z</time>
      </trkpt>
      <trkpt lat="45.64691" lon="4.67503">
        <ele>477</ele>
        <time>2020-08-20T16:37:25Z</time>
      </trkpt>
      <trkpt lat="45.64694" lon="4.67495">
        <ele>477</ele>
        <time>2020-08-20T16:37:33Z</time>
      </trkpt>
      <trkpt lat="45.64693" lon="4.67488">
        <ele>478</ele>
        <time>2020-08-20T16:37:40Z</time>
      </trkpt>
      <trkpt lat="45.64694" lon="4.67482">
        <ele>478</ele>
        <time>2020-08-20T16:37:46Z</time>
      </trkpt>
      <trkpt lat="45.64705" lon="4.67478">
        <ele>478</ele>
        <time>2020-08-20T16:38:01Z</time>
      </trkpt>
      <trkpt lat="45.64706" lon="4.67469">
        <ele>478</ele>
        <time>2020-08-20T16:38:09Z</time>
      </trkpt>
      <trkpt lat="45.64704" lon="4.67461">
        <ele>479</ele>
        <time>2020-08-20T16:38:17Z</time>
      </trkpt>
      <trkpt lat="45.64698" lon="4.67448">
        <ele>480</ele>
        <time>2020-08-20T16:38:32Z</time>
      </trkpt>
    </trkseg>
  </trk>
</gpx>